Station Historical Data
Daily Summary for January 11, 2017 Units:  Metric    English   Both
« Previous Day
Next Day »
Daily Weekly Monthly Yearly Custom
  High: Low: Average:
Temperature: 11.1 °C 1.8 °C 6.3 °C
Dew Point: 7.5 °C -4.7 °C 0 °C
Humidity: 86% 36% 66%
Wind Speed: 41.8km/h 0km/h 13.4km/h
Wind Gust: 67.6km/h - -
Wind- - SSW
Pressure: 1021.6 hPa 1002.3 hPa -
Precipitation: 0 mm    
Historical Graphs
 
 
Tabular Data for January 11, 2017
Time Temperature Dew Point Pressure Wind Wind Speed Wind Gust Humidity Rainfall Rate (Hourly)
00:04 6.8 °C 4.4 °C 1002.9 hPa SSW 19.3 km/h 33.8 km/h 85% 1.02 mm
00:09 6.9 °C 4.6 °C 1002.9 hPa SSW 20.9 km/h 51.5 km/h 85% 1.02 mm
00:14 7.1 °C 4.6 °C 1002.3 hPa South 24.1 km/h 51.5 km/h 84% 1.02 mm
00:19 7.1 °C 4.6 °C 1002.3 hPa South 24.1 km/h 45.1 km/h 84% 0.76 mm
00:24 7.1 °C 4.6 °C 1002.3 hPa South 22.5 km/h 45.1 km/h 84% 0.76 mm
00:29 7.2 °C 4.7 °C 1002.6 hPa SSW 17.7 km/h 37 km/h 84% 0.76 mm
00:34 7.2 °C 4.7 °C 1002.3 hPa SSW 17.7 km/h 32.2 km/h 84% 0.51 mm
00:39 7.1 °C 4.6 °C 1002.3 hPa South 17.7 km/h 38.6 km/h 84% 0.51 mm
00:44 7.2 °C 4.7 °C 1002.6 hPa SSW 12.9 km/h 40.2 km/h 84% 0.25 mm
00:49 7.2 °C 4.4 °C 1002.6 hPa SSW 19.3 km/h 41.8 km/h 83% 0.25 mm
00:54 7.2 °C 4.4 °C 1002.3 hPa SSE 30.6 km/h 41.8 km/h 83% 0.25 mm
00:59 7.3 °C 4.6 °C 1002.3 hPa SSW 27.4 km/h 38.6 km/h 83% 0 mm
01:04 7.2 °C 4.5 °C 1002.6 hPa South 27.4 km/h 35.4 km/h 83% 0 mm
01:09 7.3 °C 4.8 °C 1002.6 hPa SSE 17.7 km/h 32.2 km/h 84% 0.25 mm
01:14 7.3 °C 4.8 °C 1002.9 hPa SSW 12.9 km/h 35.4 km/h 84% 0.25 mm
01:19 7.3 °C 5.2 °C 1004.6 hPa SW 19.3 km/h 62.8 km/h 86% 1.52 mm
01:24 6.8 °C 4.3 °C 1005 hPa SW 29 km/h 67.6 km/h 84% 1.52 mm
01:29 6.1 °C 3.6 °C 1005.3 hPa WSW 30.6 km/h 67.6 km/h 84% 1.52 mm
01:34 5.6 °C 3.3 °C 1005.3 hPa WSW 29 km/h 64.4 km/h 85% 1.78 mm
01:39 5.3 °C 2.9 °C 1005.6 hPa WSW 32.2 km/h 64.4 km/h 85% 1.78 mm
01:44 5.1 °C 2.6 °C 1006 hPa WSW 30.6 km/h 56.3 km/h 84% 1.78 mm
01:49 4.8 °C 2.2 °C 1006.7 hPa WSW 29 km/h 53.1 km/h 83% 1.78 mm
01:54 4.6 °C 1.8 °C 1006.7 hPa SW 33.8 km/h 49.9 km/h 82% 1.78 mm
01:59 4.3 °C 1.6 °C 1007.3 hPa WSW 24.1 km/h 48.3 km/h 82% 1.78 mm
02:04 4.2 °C 1.4 °C 1007.7 hPa West 24.1 km/h 62.8 km/h 82% 1.78 mm
02:09 4.1 °C 1.3 °C 1008 hPa SW 20.9 km/h 45.1 km/h 82% 1.52 mm
02:14 4 °C 1.2 °C 1008 hPa West 41.8 km/h 51.5 km/h 82% 1.52 mm
02:19 3.9 °C 1.1 °C 1008.4 hPa SW 33.8 km/h 51.5 km/h 82% 0.25 mm
02:24 3.8 °C 1 °C 1009 hPa WSW 16.1 km/h 64.4 km/h 82% 0.25 mm
02:29 3.7 °C 0.9 °C 1009 hPa WSW 27.4 km/h 64.4 km/h 82% 0.25 mm
02:34 3.6 °C 0.8 °C 1009 hPa WSW 27.4 km/h 56.3 km/h 82% 0 mm
02:39 3.4 °C 0.7 °C 1009.4 hPa WSW 27.4 km/h 56.3 km/h 82% 0 mm
02:44 3.4 °C 0.7 °C 1009.7 hPa SW 14.5 km/h 51.5 km/h 82% 0 mm
02:49 3.4 °C 0.6 °C 1010 hPa WSW 29 km/h 51.5 km/h 82% 0 mm
02:54 3.3 °C 0.6 °C 1010 hPa WSW 27.4 km/h 49.9 km/h 82% 0 mm
02:59 3.3 °C 0.5 °C 1010.7 hPa SW 25.7 km/h 49.9 km/h 82% 0 mm
03:04 3.2 °C 0.4 °C 1010.7 hPa SW 17.7 km/h 46.7 km/h 82% 0 mm
03:09 3.2 °C 0.2 °C 1011.1 hPa SSW 22.5 km/h 49.9 km/h 81% 0 mm
03:14 3.1 °C 0.2 °C 1011.4 hPa WSW 12.9 km/h 51.5 km/h 81% 0 mm
03:19 3.1 °C 0.3 °C 1011.7 hPa SSW 27.4 km/h 45.1 km/h 82% 0 mm
03:24 3.1 °C 0.3 °C 1011.7 hPa WSW 24.1 km/h 53.1 km/h 82% 0 mm
03:29 3.2 °C 0.6 °C 1012.4 hPa WSW 25.7 km/h 53.1 km/h 83% 0 mm
03:34 3.1 °C 0.5 °C 1012.1 hPa WSW 24.1 km/h 53.1 km/h 83% 0 mm
03:39 3.1 °C 0.5 °C 1012.4 hPa SW 35.4 km/h 51.5 km/h 83% 0 mm
03:44 3.1 °C 0.3 °C 1012.1 hPa WSW 24.1 km/h 51.5 km/h 82% 0 mm
03:49 3.1 °C 0.3 °C 1012.1 hPa SW 30.6 km/h 49.9 km/h 82% 0 mm
03:54 3 °C 0.2 °C 1012.4 hPa SW 29 km/h 46.7 km/h 82% 0 mm
03:59 2.9 °C 0.2 °C 1012.4 hPa WSW 24.1 km/h 46.7 km/h 82% 0 mm
04:04 2.9 °C 0.3 °C 1012.4 hPa WSW 22.5 km/h 41.8 km/h 83% 0 mm
04:09 2.8 °C 0.2 °C 1012.8 hPa SW 19.3 km/h 40.2 km/h 83% 0 mm
04:14 2.8 °C 0.2 °C 1012.8 hPa WSW 19.3 km/h 46.7 km/h 83% 0 mm
04:19 2.7 °C 0.1 °C 1013.1 hPa SW 29 km/h 41.8 km/h 83% 0 mm
04:24 2.7 °C 0.1 °C 1013.4 hPa SW 22.5 km/h 45.1 km/h 83% 0 mm
04:29 2.7 °C 0.1 °C 1013.8 hPa SW 25.7 km/h 48.3 km/h 83% 0 mm
04:34 2.7 °C -0.1 °C 1013.8 hPa SW 24.1 km/h 48.3 km/h 82% 0 mm
04:39 2.7 °C -0.1 °C 1014.1 hPa WSW 25.7 km/h 45.1 km/h 82% 0 mm
04:49 2.5 °C -0.3 °C 1014.4 hPa SW 12.9 km/h 46.7 km/h 82% 0 mm
04:54 2.4 °C -0.3 °C 1014.8 hPa WSW 20.9 km/h 37 km/h 82% 0 mm
04:59 2.4 °C -0.6 °C 1014.8 hPa WSW 22.5 km/h 46.7 km/h 81% 0 mm
05:04 2.4 °C -0.6 °C 1014.8 hPa WSW 24.1 km/h 51.5 km/h 81% 0 mm
05:09 2.3 °C -0.6 °C 1014.8 hPa WSW 20.9 km/h 51.5 km/h 81% 0 mm
05:14 2.3 °C -0.7 °C 1015.1 hPa SW 20.9 km/h 40.2 km/h 81% 0 mm
05:19 2.3 °C -0.7 °C 1015.5 hPa SSW 17.7 km/h 40.2 km/h 81% 0 mm
05:24 2.3 °C -0.7 °C 1015.5 hPa South 11.3 km/h 35.4 km/h 81% 0 mm
05:29 2.2 °C -0.7 °C 1015.8 hPa SW 24.1 km/h 40.2 km/h 81% 0 mm
05:34 2.2 °C -0.7 °C 1015.8 hPa WSW 24.1 km/h 41.8 km/h 81% 0 mm
05:39 2.2 °C -0.7 °C 1016.1 hPa SW 19.3 km/h 35.4 km/h 81% 0 mm
05:44 2.2 °C -0.7 °C 1016.1 hPa SW 24.1 km/h 51.5 km/h 81% 0 mm
05:49 2.2 °C -0.9 °C 1016.5 hPa West 20.9 km/h 41.8 km/h 80% 0 mm
05:54 2.2 °C -0.9 °C 1016.5 hPa WNW 32.2 km/h 48.3 km/h 80% 0 mm
05:59 2.2 °C -1.1 °C 1016.8 hPa WSW 14.5 km/h 46.7 km/h 79% 0 mm
06:04 2.2 °C -0.9 °C 1016.8 hPa SW 16.1 km/h 37 km/h 80% 0 mm
06:09 2.2 °C -0.9 °C 1016.8 hPa WSW 19.3 km/h 38.6 km/h 80% 0 mm
06:14 2.2 °C -0.9 °C 1017.2 hPa WSW 19.3 km/h 38.6 km/h 80% 0 mm
06:19 2.2 °C -0.8 °C 1017.5 hPa WSW 19.3 km/h 35.4 km/h 81% 0 mm
06:24 2.2 °C -0.9 °C 1017.2 hPa SW 17.7 km/h 35.4 km/h 80% 0 mm
06:29 2.1 °C -1.1 °C 1017.2 hPa WSW 17.7 km/h 40.2 km/h 80% 0 mm
06:34 2 °C -1.1 °C 1017.2 hPa WSW 30.6 km/h 32.2 km/h 80% 0 mm
06:39 2 °C -1.1 °C 1017.2 hPa WSW 19.3 km/h 38.6 km/h 80% 0 mm
06:44 2 °C -1.1 °C 1017.5 hPa SW 19.3 km/h 35.4 km/h 80% 0 mm
06:49 2 °C -1.1 °C 1017.5 hPa SW 22.5 km/h 35.4 km/h 80% 0 mm
06:54 2 °C -1.1 °C 1017.5 hPa SSW 11.3 km/h 35.4 km/h 80% 0 mm
06:59 2 °C -1.1 °C 1018.2 hPa SW 25.7 km/h 38.6 km/h 80% 0 mm
07:04 2 °C -1.3 °C 1018.2 hPa WSW 19.3 km/h 33.8 km/h 79% 0 mm
07:09 1.9 °C -1.2 °C 1018.5 hPa SW 16.1 km/h 33.8 km/h 80% 0 mm
07:19 1.8 °C -1.3 °C 1018.5 hPa WSW 16.1 km/h 33.8 km/h 80% 0 mm
07:24 1.8 °C -1.3 °C 1018.8 hPa West 22.5 km/h 32.2 km/h 80% 0 mm
07:29 1.9 °C -1.2 °C 1018.8 hPa SW 17.7 km/h 35.4 km/h 80% 0 mm
07:34 1.8 °C -1.3 °C 1018.8 hPa SW 17.7 km/h 35.4 km/h 80% 0 mm
07:39 1.9 °C -1.2 °C 1019.2 hPa WSW 19.3 km/h 37 km/h 80% 0 mm
07:44 1.8 °C -1.3 °C 1019.2 hPa WSW 16.1 km/h 29 km/h 80% 0 mm
07:49 1.8 °C -1.3 °C 1019.5 hPa WSW 12.9 km/h 33.8 km/h 80% 0 mm
07:54 1.9 °C -1.3 °C 1019.5 hPa WSW 17.7 km/h 35.4 km/h 79% 0 mm
07:59 2 °C -1.4 °C 1019.5 hPa SW 17.7 km/h 35.4 km/h 78% 0 mm
08:04 2 °C -1.4 °C 1019.9 hPa WSW 16.1 km/h 32.2 km/h 78% 0 mm
08:09 2.1 °C -1.6 °C 1019.9 hPa WSW 14.5 km/h 30.6 km/h 77% 0 mm
08:14 2.1 °C -1.5 °C 1019.9 hPa SW 20.9 km/h 29 km/h 77% 0 mm
08:19 2.1 °C -1.5 °C 1020.2 hPa SW 16.1 km/h 35.4 km/h 77% 0 mm
08:24 2.2 °C -1.4 °C 1020.2 hPa WSW 27.4 km/h 32.2 km/h 77% 0 mm
08:29 2.3 °C -1.5 °C 1020.5 hPa SW 17.7 km/h 32.2 km/h 76% 0 mm
08:34 2.3 °C -1.4 °C 1020.5 hPa SW 17.7 km/h 35.4 km/h 76% 0 mm
08:39 2.4 °C -1.4 °C 1020.5 hPa WSW 16.1 km/h 35.4 km/h 76% 0 mm
08:44 2.5 °C -1.5 °C 1020.9 hPa WSW 16.1 km/h 38.6 km/h 75% 0 mm
08:49 2.6 °C -1.4 °C 1020.9 hPa SW 12.9 km/h 32.2 km/h 75% 0 mm
08:54 2.7 °C -1.3 °C 1020.9 hPa WNW 12.9 km/h 27.4 km/h 75% 0 mm
08:59 2.8 °C -1.4 °C 1020.9 hPa SW 14.5 km/h 40.2 km/h 74% 0 mm
09:04 2.9 °C -1.1 °C 1020.9 hPa SW 9.7 km/h 27.4 km/h 75% 0 mm
09:09 3.1 °C -1.1 °C 1020.9 hPa SW 17.7 km/h 33.8 km/h 74% 0 mm
09:14 3.1 °C -1.1 °C 1021.2 hPa SW 12.9 km/h 19.3 km/h 74% 0 mm
09:19 3.2 °C -1.2 °C 1021.2 hPa SW 17.7 km/h 32.2 km/h 73% 0 mm
09:24 3.3 °C -1.3 °C 1021.2 hPa SW 14.5 km/h 32.2 km/h 72% 0 mm
09:29 3.4 °C -1.4 °C 1021.2 hPa WSW 9.7 km/h 22.5 km/h 71% 0 mm
09:34 3.6 °C -1.6 °C 1021.2 hPa WSW 19.3 km/h 24.1 km/h 69% 0 mm
09:39 3.7 °C -1.7 °C 1021.6 hPa SW 12.9 km/h 24.1 km/h 68% 0 mm
09:44 3.7 °C -2.1 °C 1021.6 hPa SW 12.9 km/h 24.1 km/h 66% 0 mm
09:49 3.9 °C -2.1 °C 1021.6 hPa SW 12.9 km/h 22.5 km/h 65% 0 mm
09:54 4.1 °C -2.1 °C 1021.6 hPa SW 11.3 km/h 22.5 km/h 64% 0 mm
09:59 4.3 °C -2.1 °C 1021.6 hPa WSW 12.9 km/h 24.1 km/h 63% 0 mm
10:04 4.4 °C -2.5 °C 1021.6 hPa SSW 11.3 km/h 25.7 km/h 61% 0 mm
10:09 4.6 °C -2.3 °C 1021.6 hPa South 8 km/h 25.7 km/h 61% 0 mm
10:14 4.8 °C -2.3 °C 1021.6 hPa SW 16.1 km/h 27.4 km/h 60% 0 mm
10:19 5.1 °C -2.3 °C 1021.2 hPa SW 6.4 km/h 25.7 km/h 59% 0 mm
10:24 5.2 °C -2.2 °C 1021.6 hPa SW 12.9 km/h 25.7 km/h 59% 0 mm
10:29 5.2 °C -2.4 °C 1021.6 hPa South 11.3 km/h 22.5 km/h 58% 0 mm
10:34 4.9 °C -2.4 °C 1021.6 hPa SW 12.9 km/h 27.4 km/h 59% 0 mm
10:44 5.4 °C -2.4 °C 1021.2 hPa WNW 6.4 km/h 22.5 km/h 57% 0 mm
10:49 5.6 °C -2.1 °C 1021.6 hPa West 12.9 km/h 20.9 km/h 58% 0 mm
10:54 5.6 °C -2.1 °C 1021.6 hPa SW 11.3 km/h 20.9 km/h 58% 0 mm
10:59 5.6 °C -2 °C 1021.6 hPa SW 9.7 km/h 19.3 km/h 58% 0 mm
11:04 5.6 °C -2.1 °C 1021.2 hPa WSW 11.3 km/h 24.1 km/h 58% 0 mm
11:09 5.6 °C -2.3 °C 1021.2 hPa SW 9.7 km/h 24.1 km/h 57% 0 mm
11:14 5.5 °C -2.1 °C 1020.9 hPa WSW 8 km/h 22.5 km/h 58% 0 mm
11:19 5.6 °C -1.8 °C 1020.9 hPa SSW 6.4 km/h 17.7 km/h 59% 0 mm
11:24 5.6 °C -2.3 °C 1020.9 hPa SW 12.9 km/h 12.9 km/h 57% 0 mm
11:29 5.7 °C -1.7 °C 1020.9 hPa SSW 6.4 km/h 12.9 km/h 59% 0 mm
11:34 5.7 °C -1.7 °C 1020.5 hPa SW 6.4 km/h 9.7 km/h 59% 0 mm
11:39 5.8 °C -2.1 °C 1020.9 hPa WSW 3.2 km/h 16.1 km/h 57% 0 mm
11:44 6 °C -1.9 °C 1020.9 hPa SSW 8 km/h 16.1 km/h 57% 0 mm
11:49 6.2 °C -1.7 °C 1020.9 hPa SSW 9.7 km/h 25.7 km/h 57% 0 mm
11:54 6.6 °C -1.1 °C 1020.2 hPa South 8 km/h 14.5 km/h 58% 0 mm
11:59 6.4 °C -1.7 °C 1020.2 hPa South 12.9 km/h 24.1 km/h 56% 0 mm
12:04 6.6 °C -1.4 °C 1019.9 hPa South 11.3 km/h 24.1 km/h 57% 0 mm
12:09 6.8 °C -1.4 °C 1019.9 hPa SSW 11.3 km/h 19.3 km/h 56% 0 mm
12:14 7.1 °C -0.9 °C 1019.5 hPa SSW 9.7 km/h 19.3 km/h 57% 0 mm
12:19 7.2 °C -1.2 °C 1019.5 hPa SSW 11.3 km/h 16.1 km/h 55% 0 mm
12:24 7 °C -1.4 °C 1019.5 hPa SSW 8 km/h 14.5 km/h 55% 0 mm
12:29 7.2 °C -1.8 °C 1019.2 hPa SSW 8 km/h 17.7 km/h 53% 0 mm
12:34 7.4 °C -2.1 °C 1019.2 hPa SSW 9.7 km/h 17.7 km/h 51% 0 mm
12:39 7.6 °C -1.6 °C 1018.8 hPa WSW 16.1 km/h 22.5 km/h 52% 0 mm
12:44 7.9 °C -1.9 °C 1019.2 hPa SSW 19.3 km/h 19.3 km/h 50% 0 mm
12:49 7.8 °C -2.3 °C 1018.8 hPa SSW 9.7 km/h 20.9 km/h 49% 0 mm
12:54 7.7 °C -2.7 °C 1018.8 hPa SSW 9.7 km/h 19.3 km/h 48% 0 mm
12:59 7.8 °C -2 °C 1018.5 hPa SSE 11.3 km/h 19.3 km/h 50% 0 mm
13:04 7.9 °C -2.7 °C 1018.5 hPa South 11.3 km/h 20.9 km/h 47% 0 mm
13:09 8.2 °C -3.1 °C 1018.2 hPa SSW 11.3 km/h 20.9 km/h 45% 0 mm
13:14 8.3 °C -3.2 °C 1018.2 hPa SSW 9.7 km/h 22.5 km/h 44% 0 mm
13:19 8.6 °C -2.4 °C 1018.2 hPa SSW 3.2 km/h 17.7 km/h 46% 0 mm
13:24 9 °C -2.6 °C 1018.2 hPa SSE 9.7 km/h 14.5 km/h 44% 0 mm
13:29 9.3 °C -2.7 °C 1018.2 hPa South 6.4 km/h 17.7 km/h 43% 0 mm
13:34 9 °C -3.2 °C 1017.8 hPa South 9.7 km/h 24.1 km/h 42% 0 mm
13:39 9 °C -3.2 °C 1017.8 hPa South 11.3 km/h 25.7 km/h 42% 0 mm
13:44 9.4 °C -3.2 °C 1017.5 hPa South 11.3 km/h 25.7 km/h 41% 0 mm
13:49 9.7 °C -2.9 °C 1017.5 hPa South 11.3 km/h 20.9 km/h 41% 0 mm
13:54 9.7 °C -3.3 °C 1017.5 hPa WSW 14.5 km/h 16.1 km/h 40% 0 mm
13:59 9.7 °C -2.9 °C 1017.2 hPa SSW 9.7 km/h 16.1 km/h 41% 0 mm
14:04 9.5 °C -3.8 °C 1017.2 hPa SSW 9.7 km/h 25.7 km/h 39% 0 mm
14:09 9.4 °C -3.9 °C 1017.2 hPa SSW 9.7 km/h 25.7 km/h 39% 0 mm
14:14 9.5 °C -3.8 °C 1016.8 hPa South 12.9 km/h 25.7 km/h 39% 0 mm
14:19 9.6 °C -4.1 °C 1016.5 hPa SSW 12.9 km/h 25.7 km/h 38% 0 mm
14:24 9.7 °C -4.3 °C 1016.8 hPa SSW 8 km/h 19.3 km/h 37% 0 mm
14:29 9.7 °C -4.3 °C 1016.5 hPa SSW 12.9 km/h 16.1 km/h 37% 0 mm
14:34 9.7 °C -4.3 °C 1016.5 hPa South 8 km/h 17.7 km/h 37% 0 mm
14:39 9.7 °C -4.7 °C 1016.1 hPa South 9.7 km/h 22.5 km/h 36% 0 mm
14:44 9.8 °C -4.2 °C 1016.1 hPa SSW 9.7 km/h 16.1 km/h 37% 0 mm
14:49 9.8 °C -4.6 °C 1016.5 hPa South 16.1 km/h 25.7 km/h 36% 0 mm
14:54 9.8 °C -3.9 °C 1016.5 hPa South 16.1 km/h 22.5 km/h 38% 0 mm
14:59 9.8 °C -3.8 °C 1016.1 hPa SSW 9.7 km/h 22.5 km/h 38% 0 mm
15:04 9.8 °C -3.9 °C 1016.1 hPa SSW 9.7 km/h 17.7 km/h 38% 0 mm
15:09 9.7 °C -3.9 °C 1015.8 hPa SSW 9.7 km/h 22.5 km/h 38% 0 mm
15:14 9.7 °C -4 °C 1015.8 hPa SSW 9.7 km/h 22.5 km/h 38% 0 mm
15:19 9.7 °C -4 °C 1015.8 hPa South 9.7 km/h 20.9 km/h 38% 0 mm
15:24 9.7 °C -4.3 °C 1015.8 hPa SSW 9.7 km/h 19.3 km/h 37% 0 mm
15:29 9.6 °C -4.1 °C 1015.8 hPa SSW 8 km/h 17.7 km/h 38% 0 mm
15:34 9.6 °C -3.7 °C 1015.8 hPa SW 4.8 km/h 16.1 km/h 39% 0 mm
15:39 9.5 °C -3.8 °C 1015.8 hPa SW 4.8 km/h 20.9 km/h 39% 0 mm
15:44 9.4 °C -3.8 °C 1015.8 hPa South 6.4 km/h 17.7 km/h 39% 0 mm
15:49 9.4 °C -3.8 °C 1016.1 hPa SW 4.8 km/h 19.3 km/h 39% 0 mm
15:54 9.4 °C -3.6 °C 1016.1 hPa SW 11.3 km/h 17.7 km/h 40% 0 mm
15:59 9.2 °C -3.1 °C 1016.1 hPa WSW 3.2 km/h 14.5 km/h 42% 0 mm
16:04 9.2 °C -3.1 °C 1016.1 hPa SSW 8 km/h 17.7 km/h 42% 0 mm
16:09 9.1 °C -2.9 °C 1016.1 hPa SSW 6.4 km/h 17.7 km/h 43% 0 mm
16:14 9.1 °C -2.8 °C 1016.1 hPa SW 6.4 km/h 14.5 km/h 43% 0 mm
16:19 9 °C -2.9 °C 1016.1 hPa SW 6.4 km/h 14.5 km/h 43% 0 mm
16:24 8.9 °C -2.7 °C 1015.8 hPa SSE 4.8 km/h 11.3 km/h 44% 0 mm
16:29 8.8 °C -2.4 °C 1015.8 hPa South 8 km/h 12.9 km/h 45% 0 mm
16:34 8.7 °C -2.3 °C 1015.5 hPa SSW 4.8 km/h 12.9 km/h 46% 0 mm
16:39 8.5 °C -2.5 °C 1015.5 hPa SSW 3.2 km/h 8 km/h 46% 0 mm
16:44 8.4 °C -2.3 °C 1015.5 hPa SSW 3.2 km/h 8 km/h 47% 0 mm
16:49 8.2 °C -2.4 °C 1015.1 hPa SSW 1.6 km/h 4.8 km/h 47% 0 mm
16:54 7.9 °C -2.4 °C 1015.1 hPa Calm   3.2 km/h 48% 0 mm
16:59 7.7 °C -2.4 °C 1015.1 hPa Calm   1.6 km/h 49% 0 mm
17:04 7.4 °C -2.4 °C 1014.8 hPa Calm   3.2 km/h 50% 0 mm
17:09 7.3 °C -2.4 °C 1015.1 hPa Calm   3.2 km/h 50% 0 mm
17:14 7.1 °C -2.3 °C 1015.1 hPa Calm   1.6 km/h 51% 0 mm
17:19 6.9 °C -2.2 °C 1015.1 hPa Calm     52% 0 mm
17:24 6.6 °C -2.3 °C 1014.8 hPa Calm     53% 0 mm
17:29 6.3 °C -2.3 °C 1014.8 hPa Calm     54% 0 mm
17:34 6.2 °C -2.2 °C 1014.8 hPa Calm     55% 0 mm
17:39 6.4 °C -1.9 °C 1014.4 hPa Calm     55% 0 mm
17:44 6.9 °C -1.6 °C 1014.1 hPa SSE 3.2 km/h 3.2 km/h 55% 0 mm
17:49 7.2 °C -1.2 °C 1014.1 hPa South 1.6 km/h 4.8 km/h 55% 0 mm
17:54 7.3 °C -0.9 °C 1014.1 hPa South 1.6 km/h 4.8 km/h 56% 0 mm
17:59 7.2 °C -1 °C 1014.1 hPa SW 1.6 km/h 4.8 km/h 56% 0 mm
18:09 7.1 °C -0.9 °C 1014.1 hPa SW 1.6 km/h 4.8 km/h 57% 0 mm
18:14 6.9 °C -1 °C 1014.1 hPa SW 1.6 km/h 4.8 km/h 57% 0 mm
18:19 6.8 °C -0.9 °C 1014.1 hPa Calm   3.2 km/h 58% 0 mm
18:24 6.6 °C -1.1 °C 1014.1 hPa Calm     58% 0 mm
18:29 6.6 °C -0.9 °C 1013.8 hPa Calm     59% 0 mm
18:34 6.6 °C -0.7 °C 1014.1 hPa Calm     60% 0 mm
18:39 6.8 °C -0.4 °C 1014.1 hPa Calm     60% 0 mm
18:44 7.1 °C -0.2 °C 1013.8 hPa Calm   4.8 km/h 60% 0 mm
18:49 7.2 °C 0.2 °C 1013.8 hPa South 3.2 km/h 4.8 km/h 61% 0 mm
18:54 7.1 °C 0.3 °C 1013.8 hPa Calm   3.2 km/h 62% 0 mm
18:59 6.8 °C 0.1 °C 1014.1 hPa Calm   1.6 km/h 62% 0 mm
19:04 6.6 °C 0.3 °C 1013.8 hPa Calm     64% 0 mm
19:09 6.7 °C 0.2 °C 1013.8 hPa Calm     63% 0 mm
19:14 6.8 °C 0.2 °C 1013.8 hPa Calm   4.8 km/h 63% 0 mm
19:19 7 °C 0.7 °C 1013.8 hPa South 1.6 km/h 4.8 km/h 64% 0 mm
19:24 7.2 °C 0.7 °C 1013.4 hPa SSE 3.2 km/h 6.4 km/h 63% 0 mm
19:29 7.3 °C 0.5 °C 1013.4 hPa SSE 3.2 km/h 9.7 km/h 62% 0 mm
19:34 7.4 °C 0.6 °C 1013.4 hPa SSW 1.6 km/h 4.8 km/h 62% 0 mm
19:39 7.3 °C 0.7 °C 1013.4 hPa SSW 4.8 km/h 4.8 km/h 63% 0 mm
19:44 7.7 °C 1.1 °C 1013.4 hPa South 3.2 km/h 8 km/h 63% 0 mm
19:49 8.1 °C 1.2 °C 1013.4 hPa South 4.8 km/h 9.7 km/h 62% 0 mm
19:54 8.3 °C 1.2 °C 1013.1 hPa South 4.8 km/h 11.3 km/h 61% 0 mm
19:59 8.4 °C 1.3 °C 1013.1 hPa South 6.4 km/h 11.3 km/h 61% 0 mm
20:04 8.4 °C 1.3 °C 1013.1 hPa South 4.8 km/h 9.7 km/h 61% 0 mm
20:09 8.3 °C 1.4 °C 1013.1 hPa South 4.8 km/h 9.7 km/h 62% 0 mm
20:14 8.2 °C 1.6 °C 1013.1 hPa South 4.8 km/h 9.7 km/h 63% 0 mm
20:19 8.3 °C 1.9 °C 1012.8 hPa South 4.8 km/h 9.7 km/h 64% 0 mm
20:24 8.9 °C 2.4 °C 1012.8 hPa South 6.4 km/h 14.5 km/h 64% 0 mm
20:29 9.3 °C 2.6 °C 1012.8 hPa SSW 1.6 km/h 14.5 km/h 63% 0 mm
20:34 9.6 °C 2.7 °C 1012.4 hPa SSW 4.8 km/h 12.9 km/h 62% 0 mm
20:39 9.9 °C 2.8 °C 1012.4 hPa South 4.8 km/h 16.1 km/h 61% 0 mm
20:44 9.9 °C 2.8 °C 1012.1 hPa South 4.8 km/h 11.3 km/h 61% 0 mm
20:49 9.8 °C 2.6 °C 1011.7 hPa South 6.4 km/h 9.7 km/h 61% 0 mm
20:54 9.8 °C 2.6 °C 1011.7 hPa SSE 6.4 km/h 12.9 km/h 61% 0 mm
20:59 9.8 °C 2.7 °C 1011.4 hPa South 8 km/h 16.1 km/h 61% 0 mm
21:04 9.9 °C 2.7 °C 1011.4 hPa South 8 km/h 17.7 km/h 61% 0 mm
21:09 9.9 °C 3 °C 1011.4 hPa South 3.2 km/h 16.1 km/h 62% 0 mm
21:14 9.9 °C 2.9 °C 1011.4 hPa South 3.2 km/h 11.3 km/h 62% 0 mm
21:19 9.8 °C 2.9 °C 1011.4 hPa SSW 11.3 km/h 19.3 km/h 62% 0 mm
21:24 10 °C 3.1 °C 1011.4 hPa South 6.4 km/h 14.5 km/h 62% 0 mm
21:29 10.2 °C 3.2 °C 1011.1 hPa SSW 8 km/h 17.7 km/h 62% 0 mm
21:34 10.2 °C 3.2 °C 1011.1 hPa SSW 8 km/h 17.7 km/h 62% 0 mm
21:39 10.2 °C 3.3 °C 1011.1 hPa SSW 8 km/h 17.7 km/h 62% 0 mm
21:49 10.2 °C 3.4 °C 1010.4 hPa SW 9.7 km/h 22.5 km/h 63% 0 mm
21:54 10.1 °C 3.6 °C 1010 hPa SSW 6.4 km/h 14.5 km/h 64% 0 mm
21:59 10.1 °C 3.6 °C 1010 hPa South 9.7 km/h 20.9 km/h 64% 0 mm
22:04 10.2 °C 3.9 °C 1010 hPa South 9.7 km/h 24.1 km/h 65% 0 mm
22:09 10.2 °C 3.9 °C 1010 hPa SSW 8 km/h 19.3 km/h 65% 0 mm
22:14 10.1 °C 4 °C 1009.7 hPa SSE 8 km/h 16.1 km/h 66% 0 mm
22:19 10 °C 3.9 °C 1009.7 hPa South 12.9 km/h 14.5 km/h 66% 0 mm
22:24 10.2 °C 4.5 °C 1009.7 hPa South 9.7 km/h 22.5 km/h 68% 0 mm
22:29 10.4 °C 5 °C 1009.4 hPa South 8 km/h 19.3 km/h 69% 0 mm
22:34 10.7 °C 5.4 °C 1009.4 hPa South 11.3 km/h 32.2 km/h 70% 0 mm
22:39 11 °C 5.9 °C 1009.4 hPa South 16.1 km/h 40.2 km/h 71% 0 mm
22:44 11.1 °C 5.8 °C 1009 hPa South 17.7 km/h 40.2 km/h 70% 0 mm
22:49 11.1 °C 6 °C 1009 hPa South 16.1 km/h 35.4 km/h 71% 0 mm
22:54 11 °C 6.3 °C 1008.7 hPa SE 22.5 km/h 33.8 km/h 73% 0 mm
22:59 10.9 °C 6.3 °C 1008.7 hPa ESE 12.9 km/h 29 km/h 73% 0 mm
23:04 10.8 °C 6.4 °C 1009 hPa South 17.7 km/h 29 km/h 74% 0 mm
23:09 10.8 °C 6.7 °C 1008.7 hPa South 24.1 km/h 30.6 km/h 76% 0 mm
23:14 10.7 °C 6.8 °C 1008.7 hPa South 12.9 km/h 25.7 km/h 77% 0 mm
23:19 10.7 °C 6.8 °C 1009 hPa SSW 16.1 km/h 35.4 km/h 77% 0 mm
23:24 10.6 °C 6.7 °C 1009 hPa SSW 20.9 km/h 35.4 km/h 77% 0 mm
23:29 10.6 °C 7.1 °C 1009 hPa WSW 22.5 km/h 38.6 km/h 79% 0 mm
23:34 10.2 °C 7.1 °C 1008.7 hPa South 17.7 km/h 27.4 km/h 81% 0.25 mm
23:39 10 °C 7.2 °C 1008.7 hPa South 12.9 km/h 27.4 km/h 83% 0.51 mm
23:44 9.9 °C 7.3 °C 1008.4 hPa South 12.9 km/h 27.4 km/h 84% 0.76 mm
23:49 9.8 °C 7.4 °C 1008.4 hPa South 14.5 km/h 27.4 km/h 85% 0.76 mm
23:54 9.8 °C 7.4 °C 1008.4 hPa South 14.5 km/h 27.4 km/h 85% 0.76 mm
23:59 9.9 °C 7.5 °C 1008 hPa WSW 12.9 km/h 25.7 km/h 85% 0.76 mm
Buffalo, New York, USA
Compliments of Weather Underground - 2.5 mb